Time;durP1;ratioP1;P1;durP2;ratioP2;P2;SDS_P1;SDS_P2;PMS_P1;PMS_P2;Temp;Humidity;BMP_temperature;BMP_pressure;BME280_temperature;BME280_humidity;BME280_pressure;Samples;Min_cycle;Max_cycle;Signal;HPM_P1;HPM_P2
2023/03/16 00:01:18;;;;;;;15.00;12.25;;;1.10;99.90;;;;;;4992870;28;20415;-49
2023/03/16 00:03:44;;;;;;;15.73;11.82;;;1.00;99.90;;;;;;4992503;28;20053;-50
2023/03/16 00:06:10;;;;;;;17.10;11.85;;;1.00;99.90;;;;;;4992837;28;20049;-52
2023/03/16 00:08:37;;;;;;;18.88;12.93;;;0.90;99.90;;;;;;4992454;28;20022;-50
2023/03/16 00:11:03;;;;;;;17.83;13.02;;;1.00;99.90;;;;;;4992782;28;20511;-53
2023/03/16 00:13:29;;;;;;;16.42;13.70;;;1.00;99.90;;;;;;4992652;28;20061;-53
2023/03/16 00:15:57;;;;;;;17.67;13.18;;;0.90;99.90;;;;;;4992676;28;20037;-53
2023/03/16 00:18:27;;;;;;;15.93;13.20;;;0.90;99.90;;;;;;4992747;28;20100;-52
2023/03/16 00:20:55;;;;;;;17.00;13.48;;;0.80;99.90;;;;;;4992391;28;20039;-50
2023/03/16 00:23:26;;;;;;;17.90;13.32;;;0.80;99.90;;;;;;4991258;28;20041;-54
2023/03/16 00:25:59;;;;;;;19.15;13.85;;;0.80;99.90;;;;;;4992370;28;20026;-52
2023/03/16 00:28:26;;;;;;;24.35;16.45;;;0.80;99.90;;;;;;4992392;28;20040;-56
2023/03/16 00:30:57;;;;;;;23.67;17.30;;;0.80;99.90;;;;;;4992319;28;20089;-52
2023/03/16 00:33:23;;;;;;;22.08;15.05;;;0.80;99.90;;;;;;4992337;28;20045;-54
2023/03/16 00:35:49;;;;;;;22.73;14.13;;;0.80;99.90;;;;;;4992162;28;20038;-55
2023/03/16 00:38:18;;;;;;;22.08;14.40;;;0.80;99.90;;;;;;4992382;28;20022;-53
2023/03/16 00:40:45;;;;;;;19.98;14.13;;;0.80;99.90;;;;;;4993061;28;20029;-51
2023/03/16 00:43:12;;;;;;;15.48;12.73;;;0.70;99.90;;;;;;4992026;28;20023;-51
2023/03/16 00:45:38;;;;;;;16.85;14.45;;;0.70;99.90;;;;;;4992142;28;20413;-50
2023/03/16 00:48:03;;;;;;;16.60;12.98;;;0.70;99.90;;;;;;4992219;28;20037;-55
2023/03/16 00:50:29;;;;;;;16.42;13.77;;;0.60;99.90;;;;;;4992188;28;20033;-54
2023/03/16 00:52:54;;;;;;;16.52;13.60;;;0.60;99.90;;;;;;4992165;28;20033;-51
2023/03/16 00:55:20;;;;;;;17.83;13.93;;;0.60;99.90;;;;;;4992147;28;20026;-54
2023/03/16 00:57:46;;;;;;;20.42;13.30;;;0.60;99.90;;;;;;4991972;28;20026;-53
2023/03/16 01:00:15;;;;;;;20.80;14.38;;;0.50;99.90;;;;;;4992257;28;20030;-51
2023/03/16 01:02:44;;;;;;;19.60;13.75;;;0.50;99.90;;;;;;4990476;28;20031;-56
2023/03/16 01:05:11;;;;;;;18.33;13.68;;;0.50;99.90;;;;;;4995581;28;20026;-51
2023/03/16 01:07:38;;;;;;;17.20;14.63;;;0.60;99.90;;;;;;4995769;28;20134;-53
2023/03/16 01:10:04;;;;;;;19.17;14.98;;;0.60;99.90;;;;;;4995971;28;20029;-53
2023/03/16 01:12:30;;;;;;;17.52;13.95;;;0.50;99.90;;;;;;4994283;28;20027;-51
2023/03/16 01:14:56;;;;;;;19.48;14.60;;;0.40;99.90;;;;;;4995660;28;20113;-54
2023/03/16 01:17:22;;;;;;;17.63;14.27;;;0.40;99.90;;;;;;4995812;28;20069;-54
2023/03/16 01:19:48;;;;;;;17.08;13.05;;;0.20;99.90;;;;;;4994428;28;20018;-52
2023/03/16 01:22:16;;;;;;;21.25;14.05;;;0.20;99.90;;;;;;4995638;28;20481;-53
2023/03/16 01:24:46;;;;;;;16.20;14.05;;;0.10;99.90;;;;;;4995484;28;20030;-55
2023/03/16 01:27:13;;;;;;;19.98;15.23;;;0.10;99.90;;;;;;4995441;28;20050;-51
2023/03/16 01:29:39;;;;;;;17.63;13.80;;;0.00;99.90;;;;;;4994207;28;20462;-52
2023/03/16 01:32:06;;;;;;;20.85;15.38;;;-0.10;99.90;;;;;;4994205;28;20101;-50
2023/03/16 01:34:33;;;;;;;20.92;14.93;;;-0.10;99.90;;;;;;4995345;28;20038;-49
2023/03/16 01:36:59;;;;;;;21.00;14.55;;;-0.20;99.90;;;;;;4995546;28;20022;-52
2023/03/16 01:39:26;;;;;;;23.65;16.23;;;-0.20;99.90;;;;;;4995432;28;20117;-55
2023/03/16 01:41:52;;;;;;;25.83;16.15;;;-0.20;99.90;;;;;;4995233;28;20031;-52
2023/03/16 01:44:23;;;;;;;19.10;14.25;;;-0.20;99.90;;;;;;4995119;28;20038;-53
2023/03/16 01:46:49;;;;;;;20.83;15.18;;;-0.20;99.90;;;;;;4995023;28;20014;-49
2023/03/16 01:49:29;;;;;;;19.38;15.27;;;-0.20;99.90;;;;;;4995294;28;20022;-55
2023/03/16 01:52:01;;;;;;;20.60;15.07;;;-0.30;99.90;;;;;;4993728;28;20023;-54
2023/03/16 01:54:41;;;;;;;18.10;14.18;;;-0.30;99.90;;;;;;4993795;28;20027;-51
2023/03/16 01:57:28;;;;;;;19.83;14.50;;;-0.30;99.90;;;;;;4995051;28;20026;-55
2023/03/16 02:00:15;;;;;;;19.23;14.68;;;-0.30;99.90;;;;;;4994842;28;20022;-52
2023/03/16 02:02:43;;;;;;;18.70;14.70;;;-0.40;99.90;;;;;;4994672;28;20030;-55
2023/03/16 02:05:18;;;;;;;18.35;14.68;;;-0.40;99.90;;;;;;4994845;28;20031;-52
2023/03/16 02:07:46;;;;;;;20.38;14.70;;;-0.50;99.90;;;;;;4994472;28;20042;-52
2023/03/16 02:10:15;;;;;;;19.83;13.52;;;-0.50;99.90;;;;;;4994745;28;20377;-51
2023/03/16 02:12:42;;;;;;;19.65;14.10;;;-0.60;99.90;;;;;;4994680;28;20025;-53
2023/03/16 02:15:08;;;;;;;18.02;13.95;;;-0.70;99.90;;;;;;4992428;28;20022;-51
2023/03/16 02:17:35;;;;;;;18.55;13.93;;;-0.70;99.90;;;;;;4994602;28;20030;-53
2023/03/16 02:20:18;;;;;;;20.35;14.02;;;-0.80;99.90;;;;;;4993360;28;20033;-53
2023/03/16 02:22:47;;;;;;;15.38;12.98;;;-0.80;99.90;;;;;;4994438;28;20041;-54
2023/03/16 02:25:16;;;;;;;18.20;14.32;;;-0.90;99.90;;;;;;4994484;28;20057;-50
2023/03/16 02:27:50;;;;;;;22.55;16.20;;;-0.90;99.90;;;;;;4994365;28;20073;-51
2023/03/16 02:30:17;;;;;;;24.48;14.43;;;-1.00;99.90;;;;;;4994595;28;20026;-52
2023/03/16 02:32:46;;;;;;;21.10;14.68;;;-1.00;99.90;;;;;;4994176;28;20362;-56
2023/03/16 02:35:12;;;;;;;14.85;12.65;;;-1.00;99.90;;;;;;4994045;28;20500;-56
2023/03/16 02:37:38;;;;;;;21.52;14.48;;;-0.90;99.90;;;;;;4993999;28;20019;-55
2023/03/16 02:40:21;;;;;;;21.42;14.35;;;-1.00;99.90;;;;;;4994440;28;20025;-57
2023/03/16 02:43:15;;;;;;;24.38;14.88;;;-1.00;99.90;;;;;;4994055;28;20027;-56
2023/03/16 02:45:47;;;;;;;19.60;14.77;;;-1.00;99.90;;;;;;4992695;28;20026;-57
2023/03/16 02:48:21;;;;;;;21.92;13.82;;;-1.00;99.90;;;;;;4994165;28;20394;-53
2023/03/16 02:50:50;;;;;;;20.42;15.18;;;-0.90;99.90;;;;;;4993613;28;20026;-52
2023/03/16 02:53:16;;;;;;;18.15;13.27;;;-0.90;99.90;;;;;;4993668;28;20355;-55
2023/03/16 02:55:42;;;;;;;23.35;15.02;;;-0.80;99.90;;;;;;4993902;28;20034;-54
2023/03/16 02:58:07;;;;;;;20.00;12.50;;;-0.90;99.90;;;;;;4992739;28;20477;-55
2023/03/16 03:00:33;;;;;;;20.13;13.85;;;-1.00;99.90;;;;;;4993719;28;20034;-55
2023/03/16 03:02:58;;;;;;;17.52;13.05;;;-1.00;99.90;;;;;;4993714;28;20559;-55
2023/03/16 03:05:24;;;;;;;18.52;13.93;;;-1.10;99.90;;;;;;4993763;28;20069;-57
2023/03/16 03:07:50;;;;;;;26.92;14.43;;;-1.10;99.90;;;;;;4993416;28;20039;-53
2023/03/16 03:10:15;;;;;;;24.67;16.63;;;-1.20;99.90;;;;;;4993703;28;20022;-54
2023/03/16 03:12:41;;;;;;;21.75;14.77;;;-1.20;99.90;;;;;;4993583;28;20026;-54
2023/03/16 03:15:07;;;;;;;27.90;15.98;;;-1.10;99.90;;;;;;4993715;28;20677;-56
2023/03/16 03:17:33;;;;;;;26.08;16.63;;;-1.20;99.90;;;;;;4993214;28;20649;-56
2023/03/16 03:20:01;;;;;;;19.17;14.88;;;-1.10;99.90;;;;;;4993462;28;20034;-53
2023/03/16 03:22:27;;;;;;;17.45;13.73;;;-1.10;99.90;;;;;;4992913;28;20493;-56
2023/03/16 03:24:53;;;;;;;19.38;14.52;;;-1.10;99.90;;;;;;4992866;28;21507;-53
2023/03/16 03:27:21;;;;;;;17.02;13.75;;;-1.00;99.90;;;;;;4992821;28;20051;-56
2023/03/16 03:29:46;;;;;;;22.58;15.10;;;-0.90;99.90;;;;;;4993169;28;20077;-55
2023/03/16 03:32:12;;;;;;;21.92;14.82;;;-0.80;99.90;;;;;;4993261;28;20425;-51
2023/03/16 03:34:38;;;;;;;19.25;13.93;;;-0.70;99.90;;;;;;4993173;28;20033;-52
2023/03/16 03:37:04;;;;;;;22.70;16.25;;;-0.70;99.90;;;;;;4993054;28;20466;-49
2023/03/16 03:39:29;;;;;;;19.05;15.13;;;-0.60;99.90;;;;;;4993147;28;20023;-51
2023/03/16 03:41:55;;;;;;;17.75;14.18;;;-0.50;99.90;;;;;;4993061;28;20678;-52
2023/03/16 03:44:22;;;;;;;20.77;15.63;;;-0.50;99.90;;;;;;4993060;28;20081;-53
2023/03/16 03:46:48;;;;;;;19.27;15.45;;;-0.40;99.90;;;;;;4992783;28;20030;-53
2023/03/16 03:49:13;;;;;;;18.85;14.52;;;-0.30;99.90;;;;;;4992983;28;20030;-55
2023/03/16 03:51:40;;;;;;;19.58;15.05;;;-0.20;99.90;;;;;;4991355;28;20145;-53
2023/03/16 03:54:06;;;;;;;22.83;16.15;;;-0.20;99.90;;;;;;4992977;28;20026;-53
2023/03/16 03:56:32;;;;;;;21.42;16.27;;;-0.20;99.90;;;;;;4992804;28;20022;-52
2023/03/16 03:58:57;;;;;;;18.45;14.85;;;-0.10;99.90;;;;;;4992937;28;20052;-56
2023/03/16 04:01:23;;;;;;;22.15;14.45;;;0.00;99.90;;;;;;4992802;28;20084;-54
2023/03/16 04:03:49;;;;;;;25.90;16.17;;;0.00;99.90;;;;;;4992686;28;20026;-52
2023/03/16 04:06:15;;;;;;;24.98;15.93;;;0.10;99.90;;;;;;4991344;28;20100;-53
2023/03/16 04:08:41;;;;;;;20.58;15.55;;;0.20;99.90;;;;;;4992783;28;20014;-54
2023/03/16 04:11:06;;;;;;;21.38;16.25;;;0.30;99.90;;;;;;4991431;28;20061;-49
2023/03/16 04:13:32;;;;;;;27.33;16.33;;;0.20;99.90;;;;;;4992505;28;20366;-49
2023/03/16 04:16:01;;;;;;;20.38;15.52;;;0.30;99.90;;;;;;4992642;28;20100;-52
2023/03/16 04:18:27;;;;;;;24.50;16.40;;;0.30;99.90;;;;;;4992544;28;20027;-56
2023/03/16 04:20:53;;;;;;;26.27;15.95;;;0.30;99.90;;;;;;4992263;28;20033;-51
2023/03/16 04:23:20;;;;;;;21.42;16.92;;;0.30;99.90;;;;;;4992466;28;20023;-54
2023/03/16 04:25:47;;;;;;;20.85;14.98;;;0.30;99.90;;;;;;4992234;28;20030;-52
2023/03/16 04:28:16;;;;;;;20.92;17.13;;;0.30;99.90;;;;;;4992285;28;20053;-54
2023/03/16 04:30:42;;;;;;;23.83;17.35;;;0.20;99.90;;;;;;4992201;28;20014;-53
2023/03/16 04:33:08;;;;;;;20.63;14.43;;;0.20;99.90;;;;;;4992240;28;20535;-57
2023/03/16 04:35:33;;;;;;;21.23;14.13;;;0.20;99.90;;;;;;4992065;28;20033;-51
2023/03/16 04:38:01;;;;;;;22.90;14.18;;;0.10;99.90;;;;;;4991941;28;20105;-51
2023/03/16 04:40:26;;;;;;;19.27;15.48;;;0.00;99.90;;;;;;4992374;28;20026;-53
2023/03/16 04:42:52;;;;;;;21.63;16.25;;;-0.10;99.90;;;;;;4992073;28;20038;-58
2023/03/16 04:45:18;;;;;;;22.48;15.85;;;-0.20;99.90;;;;;;4992278;28;20081;-50
2023/03/16 04:47:43;;;;;;;24.20;15.63;;;-0.30;99.90;;;;;;4991978;28;20022;-50
2023/03/16 04:50:10;;;;;;;25.50;16.83;;;-0.30;99.90;;;;;;4992090;28;20023;-53
2023/03/16 04:52:37;;;;;;;25.30;16.38;;;-0.60;99.90;;;;;;4992168;28;20103;-51
2023/03/16 04:55:02;;;;;;;29.63;16.85;;;-0.70;99.90;;;;;;4992274;28;20038;-55
2023/03/16 04:57:29;;;;;;;20.83;15.60;;;-0.80;99.90;;;;;;4992175;28;20073;-55
2023/03/16 04:59:54;;;;;;;28.27;17.95;;;-0.80;99.90;;;;;;4991956;28;20029;-57
2023/03/16 05:02:20;;;;;;;29.63;18.23;;;-0.90;99.90;;;;;;4992036;28;20022;-51
2023/03/16 05:04:46;;;;;;;25.45;16.33;;;-0.90;99.90;;;;;;4991802;28;20019;-53
2023/03/16 05:07:12;;;;;;;28.30;19.05;;;-0.80;99.90;;;;;;4992127;28;20080;-51
2023/03/16 05:09:38;;;;;;;25.40;18.23;;;-0.70;99.90;;;;;;4990601;28;20019;-53
2023/03/16 05:12:03;;;;;;;23.55;16.40;;;-0.60;99.90;;;;;;4992015;28;20034;-51
2023/03/16 05:14:29;;;;;;;22.83;16.17;;;-0.50;99.90;;;;;;4992073;28;20034;-54
2023/03/16 05:16:55;;;;;;;20.13;15.20;;;-0.40;99.90;;;;;;4991844;28;20018;-52
2023/03/16 05:19:21;;;;;;;22.15;15.70;;;-0.30;99.90;;;;;;4991893;28;20084;-52
2023/03/16 05:21:47;;;;;;;20.20;14.75;;;-0.40;99.90;;;;;;4990520;28;20053;-55
2023/03/16 05:24:12;;;;;;;19.35;14.88;;;-0.30;99.90;;;;;;4991865;28;20030;-49
2023/03/16 05:26:38;;;;;;;23.02;15.73;;;-0.30;99.90;;;;;;4991501;28;20027;-53
2023/03/16 05:29:04;;;;;;;21.30;16.95;;;-0.30;99.90;;;;;;4991930;28;20034;-53
2023/03/16 05:31:35;;;;;;;21.00;15.30;;;-0.20;99.90;;;;;;4991697;28;20084;-54
2023/03/16 05:34:01;;;;;;;31.40;16.63;;;-0.20;99.90;;;;;;4991856;28;20474;-50
2023/03/16 05:36:27;;;;;;;20.80;14.93;;;-0.10;99.90;;;;;;4991920;28;20057;-52
2023/03/16 05:38:52;;;;;;;26.77;16.88;;;-0.20;99.90;;;;;;4991609;28;20476;-52
2023/03/16 05:41:20;;;;;;;25.83;17.50;;;-0.20;99.90;;;;;;4991768;28;20027;-52
2023/03/16 05:43:46;;;;;;;31.95;18.17;;;-0.20;99.90;;;;;;4991544;28;20053;-50
2023/03/16 05:46:12;;;;;;;27.50;18.90;;;-0.20;99.90;;;;;;4990148;28;20174;-51
2023/03/16 05:48:38;;;;;;;32.63;20.35;;;-0.20;99.90;;;;;;4991624;28;20011;-54
2023/03/16 05:51:04;;;;;;;33.47;22.10;;;-0.30;99.90;;;;;;4992964;28;20031;-55
2023/03/16 05:53:34;;;;;;;36.95;21.70;;;-0.30;99.90;;;;;;4995247;28;20030;-54
2023/03/16 05:56:00;;;;;;;30.58;19.75;;;-0.30;99.90;;;;;;4995174;28;20509;-50
2023/03/16 05:58:26;;;;;;;24.20;17.38;;;-0.30;99.90;;;;;;4994662;28;20034;-52
2023/03/16 06:00:54;;;;;;;22.30;16.90;;;-0.30;99.90;;;;;;4994250;28;20034;-52
2023/03/16 06:03:21;;;;;;;24.02;17.15;;;-0.40;99.90;;;;;;4994532;28;20022;-52
2023/03/16 06:05:47;;;;;;;25.95;17.13;;;-0.40;99.90;;;;;;4993965;28;20022;-48
2023/03/16 06:08:14;;;;;;;28.20;17.63;;;-0.40;99.90;;;;;;4994192;28;20057;-51
2023/03/16 06:10:39;;;;;;;30.75;18.60;;;-0.30;99.90;;;;;;4993896;28;20109;-49
2023/03/16 06:13:05;;;;;;;30.33;19.23;;;-0.30;99.90;;;;;;4992744;28;20117;-53
2023/03/16 06:15:31;;;;;;;25.58;18.60;;;-0.30;99.90;;;;;;4994596;28;20034;-49
2023/03/16 06:17:56;;;;;;;27.25;18.33;;;-0.20;99.90;;;;;;4994604;28;20457;-52
2023/03/16 06:20:22;;;;;;;27.73;18.58;;;-0.10;99.90;;;;;;4994667;28;20271;-54
2023/03/16 06:22:48;;;;;;;25.17;18.70;;;0.00;99.90;;;;;;4992755;28;20037;-53
2023/03/16 06:25:14;;;;;;;25.52;18.50;;;0.00;99.90;;;;;;4994194;28;20077;-53
2023/03/16 06:27:41;;;;;;;25.50;17.60;;;0.10;99.90;;;;;;4992700;28;20414;-48
2023/03/16 06:30:08;;;;;;;27.48;18.15;;;0.10;99.90;;;;;;4994407;28;20026;-51
2023/03/16 06:32:36;;;;;;;27.13;19.08;;;0.20;99.90;;;;;;4994219;28;20378;-53
2023/03/16 06:35:03;;;;;;;24.50;17.55;;;0.20;99.90;;;;;;4994385;28;20014;-51
2023/03/16 06:37:28;;;;;;;31.38;20.77;;;0.20;99.90;;;;;;4994293;28;20033;-51
2023/03/16 06:39:54;;;;;;;29.30;20.40;;;0.30;99.90;;;;;;4994300;28;20022;-55
2023/03/16 06:42:20;;;;;;;32.47;21.02;;;0.20;99.90;;;;;;4994142;28;20022;-51
2023/03/16 06:44:46;;;;;;;26.55;18.40;;;0.30;99.90;;;;;;4993967;28;20037;-54
2023/03/16 06:47:12;;;;;;;33.95;21.15;;;0.30;99.90;;;;;;4992735;28;20037;-52
2023/03/16 06:49:38;;;;;;;29.17;20.98;;;0.40;99.90;;;;;;4986001;28;20097;-50
2023/03/16 06:52:04;;;;;;;28.52;20.67;;;0.50;99.90;;;;;;4984928;28;20022;-56
2023/03/16 06:54:32;;;;;;;38.50;24.90;;;0.50;99.90;;;;;;4979855;28;20031;-53
2023/03/16 06:56:58;;;;;;;34.63;22.70;;;0.60;99.90;;;;;;4974145;28;20358;-55
2023/03/16 06:59:24;;;;;;;31.70;22.33;;;0.70;99.90;;;;;;4983022;28;20035;-53
2023/03/16 07:01:50;;;;;;;29.77;21.90;;;0.80;99.90;;;;;;4973505;28;20097;-55
2023/03/16 07:04:15;;;;;;;37.65;25.83;;;0.90;99.90;;;;;;4975108;28;20093;-54
2023/03/16 07:06:41;;;;;;;33.35;23.63;;;1.00;99.90;;;;;;4988985;28;20034;-52
2023/03/16 07:09:07;;;;;;;29.58;21.38;;;1.20;99.90;;;;;;4982445;28;20117;-55
2023/03/16 07:11:33;;;;;;;33.08;21.95;;;1.30;99.90;;;;;;4979523;28;20033;-56
2023/03/16 07:13:59;;;;;;;32.72;23.02;;;1.30;99.90;;;;;;4984422;28;20447;-54
2023/03/16 07:16:25;;;;;;;31.70;21.42;;;1.30;99.90;;;;;;4975169;28;20439;-49
2023/03/16 07:18:51;;;;;;;29.63;20.60;;;1.40;99.90;;;;;;4974074;28;20034;-50
2023/03/16 07:21:16;;;;;;;28.10;19.60;;;1.50;99.90;;;;;;4974189;28;20576;-57
2023/03/16 07:23:42;;;;;;;28.02;19.13;;;1.50;99.90;;;;;;4973921;28;20035;-52
2023/03/16 07:26:08;;;;;;;28.70;21.30;;;1.60;99.90;;;;;;4974038;28;20026;-53
2023/03/16 07:28:34;;;;;;;26.00;18.45;;;1.70;99.90;;;;;;4973565;28;20043;-55
2023/03/16 07:31:00;;;;;;;28.50;17.98;;;1.80;99.90;;;;;;4974059;28;20053;-50
2023/03/16 07:33:25;;;;;;;37.83;21.52;;;1.90;99.90;;;;;;4973863;28;20054;-52
2023/03/16 07:35:51;;;;;;;27.17;18.45;;;1.90;99.90;;;;;;4988234;28;20041;-52
2023/03/16 07:38:17;;;;;;;27.17;19.23;;;1.80;99.90;;;;;;4973528;28;20114;-52
2023/03/16 07:40:42;;;;;;;22.10;18.15;;;1.80;99.90;;;;;;4973474;28;20070;-53
2023/03/16 07:43:08;;;;;;;21.63;16.10;;;1.80;99.90;;;;;;4973417;28;20537;-53
2023/03/16 07:45:34;;;;;;;22.75;18.10;;;2.00;99.90;;;;;;4973480;28;20027;-53
2023/03/16 07:48:00;;;;;;;24.15;15.35;;;2.10;99.90;;;;;;4973615;28;20015;-50
2023/03/16 07:50:26;;;;;;;22.50;16.65;;;2.30;99.90;;;;;;4973538;28;20101;-54
2023/03/16 07:52:53;;;;;;;20.30;14.93;;;2.30;99.90;;;;;;4973458;28;20101;-51
2023/03/16 07:55:18;;;;;;;19.38;15.48;;;2.40;99.90;;;;;;4973466;28;20042;-50
2023/03/16 07:57:46;;;;;;;25.23;16.58;;;2.40;99.90;;;;;;4973311;28;20065;-52
2023/03/16 08:00:13;;;;;;;31.90;21.13;;;2.30;99.90;;;;;;4973291;28;20053;-53
2023/03/16 08:02:39;;;;;;;28.63;19.92;;;2.40;99.90;;;;;;4973152;28;20026;-51
2023/03/16 08:05:05;;;;;;;19.25;14.75;;;2.50;99.90;;;;;;4973369;28;20035;-51
2023/03/16 08:07:31;;;;;;;17.65;13.65;;;2.60;99.90;;;;;;4973469;28;20033;-52
2023/03/16 08:09:56;;;;;;;19.38;14.05;;;2.60;99.90;;;;;;4973036;28;20053;-49
2023/03/16 08:12:22;;;;;;;19.83;14.18;;;2.60;99.90;;;;;;4971741;28;20023;-48
2023/03/16 08:14:48;;;;;;;17.88;15.02;;;2.60;99.90;;;;;;4972444;28;20114;-48
2023/03/16 08:17:13;;;;;;;15.95;12.63;;;2.80;99.90;;;;;;4973138;28;20038;-49
2023/03/16 08:19:39;;;;;;;17.80;14.07;;;3.20;99.90;;;;;;4972930;28;20070;-53
2023/03/16 08:22:05;;;;;;;19.65;15.70;;;3.60;99.90;;;;;;4973054;28;20055;-56
2023/03/16 08:24:31;;;;;;;17.30;13.18;;;3.80;99.90;;;;;;4972897;28;20027;-54
2023/03/16 08:26:58;;;;;;;14.18;11.77;;;3.90;99.90;;;;;;4972731;28;20039;-50
2023/03/16 08:29:25;;;;;;;16.15;14.35;;;4.10;99.90;;;;;;4972954;28;20150;-50
2023/03/16 08:31:55;;;;;;;15.60;12.13;;;4.30;99.90;;;;;;4972877;28;20030;-49
2023/03/16 08:34:22;;;;;;;16.88;11.82;;;4.30;99.90;;;;;;4972867;28;20022;-51
2023/03/16 08:36:47;;;;;;;15.43;12.23;;;4.20;99.90;;;;;;4972807;28;20379;-50
2023/03/16 08:39:14;;;;;;;14.38;11.60;;;4.20;99.90;;;;;;4971462;28;20030;-53
2023/03/16 08:41:41;;;;;;;13.15;11.18;;;4.40;99.90;;;;;;4972559;28;20019;-51
2023/03/16 08:44:09;;;;;;;17.25;11.63;;;4.60;99.90;;;;;;4972659;28;20156;-52
2023/03/16 08:46:35;;;;;;;16.60;12.75;;;4.70;99.90;;;;;;4972615;28;20501;-52
2023/03/16 08:49:01;;;;;;;16.80;13.02;;;4.50;99.90;;;;;;4972557;28;20026;-50
2023/03/16 08:51:28;;;;;;;18.38;13.50;;;4.60;99.90;;;;;;4972640;28;20019;-52
2023/03/16 08:53:54;;;;;;;16.95;12.13;;;4.60;99.90;;;;;;4972429;28;20063;-49
2023/03/16 08:56:20;;;;;;;16.48;11.32;;;4.50;99.90;;;;;;4972743;28;20045;-51
2023/03/16 08:58:46;;;;;;;17.48;11.75;;;4.50;99.90;;;;;;4972461;28;20023;-55
2023/03/16 09:01:16;;;;;;;13.65;10.75;;;4.50;99.90;;;;;;4972652;28;20026;-49
2023/03/16 09:03:44;;;;;;;23.33;13.35;;;4.70;99.90;;;;;;4972486;28;20031;-54
2023/03/16 09:06:12;;;;;;;16.42;11.60;;;4.90;99.90;;;;;;4972595;28;20101;-50
2023/03/16 09:08:39;;;;;;;16.33;11.75;;;4.90;99.90;;;;;;4972521;28;20026;-51
2023/03/16 09:11:10;;;;;;;14.35;11.02;;;4.90;99.90;;;;;;4972590;28;20459;-49
2023/03/16 09:13:39;;;;;;;12.30;10.25;;;5.00;99.90;;;;;;4972573;28;20557;-49
2023/03/16 09:16:06;;;;;;;16.23;11.00;;;5.30;99.90;;;;;;4972351;28;20118;-52
2023/03/16 09:18:34;;;;;;;14.15;10.57;;;5.40;99.90;;;;;;4972385;28;20030;-50
2023/03/16 09:21:01;;;;;;;14.10;10.30;;;5.40;99.90;;;;;;4972856;28;20540;-49
2023/03/16 09:23:29;;;;;;;15.65;9.65;;;5.20;99.90;;;;;;4972500;28;20586;-52
2023/03/16 09:26:00;;;;;;;11.13;9.93;;;5.20;99.90;;;;;;4990082;28;20037;-51
2023/03/16 09:28:28;;;;;;;17.58;10.77;;;5.50;99.90;;;;;;4975879;28;20057;-50
2023/03/16 09:30:55;;;;;;;12.43;11.05;;;5.70;99.90;;;;;;4975980;28;20113;-51
2023/03/16 09:33:23;;;;;;;10.50;9.25;;;6.00;99.90;;;;;;4976065;28;20058;-49
2023/03/16 09:35:49;;;;;;;12.27;10.50;;;6.10;99.90;;;;;;4975803;28;20132;-49
2023/03/16 09:38:16;;;;;;;13.60;11.68;;;6.20;99.90;;;;;;4975963;28;20042;-52
2023/03/16 09:40:43;;;;;;;15.05;10.75;;;6.50;99.90;;;;;;4975768;28;20605;-49
2023/03/16 09:43:48;;;;;;;25.27;17.83;;;6.60;99.90;;;;;;4975779;28;20082;-50
2023/03/16 09:46:35;;;;;;;18.80;10.35;;;6.90;99.90;;;;;;4974607;28;20169;-53
2023/03/16 09:49:02;;;;;;;13.98;9.57;;;6.90;99.90;;;;;;4975715;28;20030;-49
2023/03/16 09:51:55;;;;;;;13.20;10.25;;;6.90;99.90;;;;;;4975849;28;20509;-53
2023/03/16 09:54:41;;;;;;;16.73;10.20;;;6.60;99.90;;;;;;4973499;28;20043;-51
2023/03/16 09:57:27;;;;;;;19.25;11.20;;;6.50;99.90;;;;;;4990575;28;20062;-52
2023/03/16 09:59:57;;;;;;;20.10;10.75;;;6.50;99.90;;;;;;4975207;28;20038;-54
2023/03/16 10:02:26;;;;;;;11.45;9.00;;;6.80;99.90;;;;;;4975469;28;20419;-49
2023/03/16 10:05:11;;;;;;;11.05;9.10;;;7.20;99.90;;;;;;4975339;28;20045;-51
2023/03/16 10:08:14;;;;;;;10.93;8.73;;;7.60;99.90;;;;;;4975439;28;20066;-50
2023/03/16 10:10:50;;;;;;;11.63;10.38;;;7.30;99.50;;;;;;4975170;28;20343;-48
2023/03/16 10:13:27;;;;;;;13.77;9.18;;;7.60;99.90;;;;;;4975072;28;20034;-55
2023/03/16 10:15:54;;;;;;;18.55;9.13;;;7.60;98.40;;;;;;4975181;28;20037;-49
2023/03/16 10:18:27;;;;;;;10.02;7.72;;;7.40;98.40;;;;;;4975328;28;20030;-53
2023/03/16 10:20:54;;;;;;;22.73;9.43;;;7.50;98.00;;;;;;4975267;28;20019;-52
2023/03/16 10:23:24;;;;;;;10.60;8.07;;;7.60;97.80;;;;;;4974999;28;20067;-50
2023/03/16 10:25:52;;;;;;;18.65;8.18;;;7.50;97.60;;;;;;4975087;28;20031;-53
2023/03/16 10:28:25;;;;;;;9.52;7.88;;;7.60;97.20;;;;;;4974973;28;20182;-52
2023/03/16 10:30:53;;;;;;;17.02;8.85;;;7.80;95.40;;;;;;4974846;28;20031;-51
2023/03/16 10:33:30;;;;;;;14.65;8.98;;;8.30;97.70;;;;;;4974910;28;20106;-51
2023/03/16 10:36:00;;;;;;;10.85;7.57;;;8.60;97.20;;;;;;4974081;28;20117;-57
2023/03/16 10:38:54;;;;;;;13.25;8.95;;;8.60;94.80;;;;;;4974831;28;20042;-54
2023/03/16 10:41:24;;;;;;;8.98;8.07;;;9.00;95.80;;;;;;4974908;28;20049;-52
2023/03/16 10:44:06;;;;;;;11.45;8.23;;;9.10;94.90;;;;;;4975059;28;20042;-52
2023/03/16 10:46:40;;;;;;;10.00;7.95;;;9.40;94.20;;;;;;4974375;28;20485;-52
2023/03/16 10:49:26;;;;;;;9.95;7.32;;;9.70;93.00;;;;;;4974600;28;20485;-52
2023/03/16 10:51:59;;;;;;;11.10;7.32;;;10.00;92.20;;;;;;4974144;28;20027;-50
2023/03/16 10:54:32;;;;;;;7.88;6.97;;;10.50;87.70;;;;;;4974462;28;20062;-54
2023/03/16 10:56:59;;;;;;;9.57;6.80;;;11.60;85.20;;;;;;4974487;28;20386;-55
2023/03/16 10:59:32;;;;;;;8.00;5.70;;;12.60;73.80;;;;;;4978014;28;20041;-53
2023/03/16 11:02:00;;;;;;;16.52;5.55;;;12.80;71.40;;;;;;4983437;28;22327;-50
2023/03/16 11:04:31;;;;;;;5.38;4.68;;;14.10;66.30;;;;;;4981974;28;20083;-52
2023/03/16 11:06:57;;;;;;;6.38;5.13;;;14.90;61.90;;;;;;4963528;28;20034;-47
2023/03/16 11:09:33;;;;;;;5.22;4.72;;;14.90;60.30;;;;;;4964038;28;20031;-48
2023/03/16 11:12:10;;;;;;;6.70;5.15;;;15.40;58.10;;;;;;4964141;28;20035;-53
2023/03/16 11:14:36;;;;;;;13.68;5.82;;;15.60;55.70;;;;;;4963601;28;20041;-53
2023/03/16 11:17:09;;;;;;;10.05;5.45;;;15.90;56.40;;;;;;4965183;28;20022;-53
2023/03/16 11:19:54;;;;;;;9.43;5.72;;;16.00;54.30;;;;;;4965482;28;20037;-51
2023/03/16 11:22:25;;;;;;;8.50;5.28;;;16.20;51.00;;;;;;4963990;28;20062;-55
2023/03/16 11:25:09;;;;;;;13.48;5.80;;;15.90;50.00;;;;;;4963872;28;20844;-54
2023/03/16 11:27:47;;;;;;;18.98;7.15;;;16.80;49.50;;;;;;4963943;28;20482;-53
2023/03/16 11:30:38;;;;;;;14.40;8.57;;;16.50;49.20;;;;;;4963032;28;20030;-54
2023/03/16 11:33:12;;;;;;;9.23;5.63;;;16.60;51.80;;;;;;4963360;28;20378;-52
2023/03/16 11:36:19;;;;;;;17.73;8.60;;;16.50;49.30;;;;;;4961976;28;20366;-52
2023/03/16 11:38:47;;;;;;;14.27;6.28;;;16.30;48.70;;;;;;4968318;28;20050;-53
2023/03/16 11:41:27;;;;;;;6.00;5.40;;;17.00;47.80;;;;;;4982359;28;20469;-55
2023/03/16 11:44:13;;;;;;;5.35;4.47;;;16.70;45.30;;;;;;4982390;28;20366;-52
2023/03/16 11:46:49;;;;;;;8.07;5.72;;;17.10;46.70;;;;;;4981818;28;20461;-55
2023/03/16 11:49:50;;;;;;;5.40;4.90;;;17.50;47.30;;;;;;4972487;28;20046;-56
2023/03/16 11:52:24;;;;;;;7.68;5.10;;;17.70;45.30;;;;;;4973189;28;20031;-53
2023/03/16 11:54:49;;;;;;;;;;;17.30;44.60;;;;;;4973821;28;20208;-53
2023/03/16 11:57:41;;;;;;;5.47;3.80;;;17.20;47.70;;;;;;4973323;28;19942;-57
2023/03/16 12:00:40;;;;;;;5.55;4.97;;;17.30;44.00;;;;;;4972644;28;20339;-56
2023/03/16 12:03:30;;;;;;;6.13;4.72;;;16.90;45.40;;;;;;4972074;28;20035;-56
2023/03/16 12:06:20;;;;;;;3.95;3.55;;;17.50;45.00;;;;;;4972038;28;20486;-55
2023/03/16 12:09:09;;;;;;;7.57;3.83;;;17.30;43.10;;;;;;4971910;28;20027;-54
2023/03/16 12:12:04;;;;;;;8.30;4.10;;;17.00;43.20;;;;;;4972095;28;20093;-53
2023/03/16 12:14:40;;;;;;;5.30;4.30;;;17.70;45.80;;;;;;4967018;28;20062;-55
2023/03/16 12:17:26;;;;;;;9.30;4.55;;;18.10;42.80;;;;;;4971974;28;20031;-53
2023/03/16 12:19:57;;;;;;;6.00;4.32;;;19.10;44.10;;;;;;4971670;28;20031;-49
2023/03/16 12:22:50;;;;;;;7.97;4.68;;;17.50;43.80;;;;;;4971898;28;20058;-52
2023/03/16 12:25:23;;;;;;;5.47;3.97;;;17.90;44.50;;;;;;4971986;28;20117;-52
2023/03/16 12:27:53;;;;;;;10.93;4.70;;;17.90;45.50;;;;;;4971800;28;20066;-56
2023/03/16 12:30:24;;;;;;;27.60;17.50;;;17.40;45.50;;;;;;4971686;28;20023;-48
2023/03/16 12:33:02;;;;;;;7.15;4.13;;;17.40;45.40;;;;;;4971612;28;20029;-55
2023/03/16 12:35:41;;;;;;;16.33;10.95;;;17.70;43.30;;;;;;4970341;28;20058;-55
2023/03/16 12:38:10;;;;;;;6.20;4.47;;;17.90;45.80;;;;;;4971804;28;20490;-53
2023/03/16 12:41:02;;;;;;;7.15;4.50;;;18.00;43.80;;;;;;4971851;28;20035;-54
2023/03/16 12:43:37;;;;;;;4.97;4.07;;;18.20;43.60;;;;;;4971846;28;20037;-55
2023/03/16 12:46:17;;;;;;;21.17;9.13;;;19.60;41.60;;;;;;4971613;28;20035;-52
2023/03/16 12:48:51;;;;;;;7.43;5.28;;;19.50;43.60;;;;;;4971561;28;20062;-56